sensor_id;sensor_type;location;lat;lon;timestamp;pressure;altitude;pressure_sealevel;temperature;humidity
77233;BME280;66251;51.144;17.050;2022-12-31T00:01:49;100041.69;;;6.13;69.34
77233;BME280;66251;51.144;17.050;2022-12-31T00:04:18;100032.55;;;6.14;69.37
77233;BME280;66251;51.144;17.050;2022-12-31T00:06:39;100033.52;;;6.16;69.14
77233;BME280;66251;51.144;17.050;2022-12-31T00:09:05;100036.66;;;6.19;68.91
77233;BME280;66251;51.144;17.050;2022-12-31T00:11:47;100032.63;;;6.22;69.34
77233;BME280;66251;51.144;17.050;2022-12-31T00:14:09;100031.33;;;6.24;69.04
77233;BME280;66251;51.144;17.050;2022-12-31T00:16:34;100016.15;;;6.27;69.40
77233;BME280;66251;51.144;17.050;2022-12-31T00:19:08;100022.20;;;6.28;69.45
77233;BME280;66251;51.144;17.050;2022-12-31T00:21:31;100024.41;;;6.31;69.33
77233;BME280;66251;51.144;17.050;2022-12-31T00:23:59;100018.91;;;6.34;69.28
77233;BME280;66251;51.144;17.050;2022-12-31T00:26:30;100019.37;;;6.37;69.72
77233;BME280;66251;51.144;17.050;2022-12-31T00:28:53;100018.46;;;6.40;69.96
77233;BME280;66251;51.144;17.050;2022-12-31T00:31:17;100020.64;;;6.43;69.50
77233;BME280;66251;51.144;17.050;2022-12-31T00:33:40;100019.21;;;6.46;69.85
77233;BME280;66251;51.144;17.050;2022-12-31T00:36:06;100015.88;;;6.50;69.75
77233;BME280;66251;51.144;17.050;2022-12-31T00:38:29;100014.54;;;6.52;69.77
77233;BME280;66251;51.144;17.050;2022-12-31T00:40:50;100010.27;;;6.56;69.94
77233;BME280;66251;51.144;17.050;2022-12-31T00:43:12;100015.85;;;6.60;69.75
77233;BME280;66251;51.144;17.050;2022-12-31T00:45:33;100023.59;;;6.65;69.75
77233;BME280;66251;51.144;17.050;2022-12-31T00:48:00;100028.48;;;6.68;69.51
77233;BME280;66251;51.144;17.050;2022-12-31T00:50:22;100030.95;;;6.72;70.09
77233;BME280;66251;51.144;17.050;2022-12-31T00:52:43;100035.17;;;6.77;70.44
77233;BME280;66251;51.144;17.050;2022-12-31T00:55:07;100042.34;;;6.82;70.21
77233;BME280;66251;51.144;17.050;2022-12-31T00:57:34;100037.55;;;6.86;70.20
77233;BME280;66251;51.144;17.050;2022-12-31T00:59:56;100035.98;;;6.90;70.27
77233;BME280;66251;51.144;17.050;2022-12-31T01:02:19;100036.27;;;6.94;69.96
77233;BME280;66251;51.144;17.050;2022-12-31T01:04:41;100041.72;;;6.99;70.33
77233;BME280;66251;51.144;17.050;2022-12-31T01:07:03;100045.53;;;7.03;70.27
77233;BME280;66251;51.144;17.050;2022-12-31T01:09:24;100043.39;;;7.07;69.92
77233;BME280;66251;51.144;17.050;2022-12-31T01:11:50;100047.50;;;7.13;70.20
77233;BME280;66251;51.144;17.050;2022-12-31T01:14:15;100044.83;;;7.18;70.15
77233;BME280;66251;51.144;17.050;2022-12-31T01:16:39;100042.31;;;7.22;69.66
77233;BME280;66251;51.144;17.050;2022-12-31T01:19:04;100042.08;;;7.26;69.99
77233;BME280;66251;51.144;17.050;2022-12-31T01:21:26;100040.52;;;7.32;70.17
77233;BME280;66251;51.144;17.050;2022-12-31T01:23:48;100033.84;;;7.37;70.00
77233;BME280;66251;51.144;17.050;2022-12-31T01:26:19;100031.31;;;7.42;69.97
77233;BME280;66251;51.144;17.050;2022-12-31T01:28:41;100022.69;;;7.45;69.88
77233;BME280;66251;51.144;17.050;2022-12-31T01:31:05;100025.15;;;7.49;69.94
77233;BME280;66251;51.144;17.050;2022-12-31T01:33:27;100022.09;;;7.54;69.57
77233;BME280;66251;51.144;17.050;2022-12-31T01:35:54;100027.13;;;7.58;69.86
77233;BME280;66251;51.144;17.050;2022-12-31T01:38:16;100029.70;;;7.62;69.75
77233;BME280;66251;51.144;17.050;2022-12-31T01:40:39;100034.99;;;7.67;70.04
77233;BME280;66251;51.144;17.050;2022-12-31T01:43:01;100038.67;;;7.72;69.85
77233;BME280;66251;51.144;17.050;2022-12-31T01:45:22;100040.19;;;7.76;69.64
77233;BME280;66251;51.144;17.050;2022-12-31T01:47:52;100037.89;;;7.79;69.82
77233;BME280;66251;51.144;17.050;2022-12-31T01:50:19;100047.64;;;7.85;69.85
77233;BME280;66251;51.144;17.050;2022-12-31T01:52:48;100054.96;;;7.90;70.00
77233;BME280;66251;51.144;17.050;2022-12-31T01:55:24;100063.77;;;7.96;70.08
77233;BME280;66251;51.144;17.050;2022-12-31T01:57:49;100067.86;;;8.01;69.95
77233;BME280;66251;51.144;17.050;2022-12-31T02:00:12;100068.70;;;8.07;70.00
77233;BME280;66251;51.144;17.050;2022-12-31T02:02:35;100073.17;;;8.12;70.04
77233;BME280;66251;51.144;17.050;2022-12-31T02:04:58;100078.20;;;8.17;70.08
77233;BME280;66251;51.144;17.050;2022-12-31T02:07:21;100073.79;;;8.21;69.82
77233;BME280;66251;51.144;17.050;2022-12-31T02:09:50;100081.66;;;8.25;69.95
77233;BME280;66251;51.144;17.050;2022-12-31T02:12:12;100079.51;;;8.30;70.13
77233;BME280;66251;51.144;17.050;2022-12-31T02:14:52;100086.73;;;8.38;70.36
77233;BME280;66251;51.144;17.050;2022-12-31T02:31:12;100076.20;;;8.80;70.68
77233;BME280;66251;51.144;17.050;2022-12-31T02:33:45;100080.81;;;8.84;70.71
77233;BME280;66251;51.144;17.050;2022-12-31T02:36:19;100079.46;;;8.89;70.67
77233;BME280;66251;51.144;17.050;2022-12-31T02:38:45;100079.20;;;8.93;70.68
77233;BME280;66251;51.144;17.050;2022-12-31T02:41:32;100075.98;;;8.96;70.44
77233;BME280;66251;51.144;17.050;2022-12-31T02:43:58;100080.31;;;9.02;70.76
77233;BME280;66251;51.144;17.050;2022-12-31T02:46:36;100092.21;;;9.06;70.84
77233;BME280;66251;51.144;17.050;2022-12-31T02:52:01;100105.48;;;9.13;71.12
77233;BME280;66251;51.144;17.050;2022-12-31T02:57:32;100090.08;;;9.21;71.11
77233;BME280;66251;51.144;17.050;2022-12-31T03:00:04;100091.70;;;9.22;71.13
77233;BME280;66251;51.144;17.050;2022-12-31T03:02:32;100088.59;;;9.24;71.05
77233;BME280;66251;51.144;17.050;2022-12-31T03:05:00;100090.33;;;9.22;71.17
77233;BME280;66251;51.144;17.050;2022-12-31T03:07:44;100093.20;;;9.21;71.30
77233;BME280;66251;51.144;17.050;2022-12-31T03:10:07;100092.10;;;9.22;71.22
77233;BME280;66251;51.144;17.050;2022-12-31T03:12:35;100089.41;;;9.25;71.15
77233;BME280;66251;51.144;17.050;2022-12-31T03:15:06;100098.33;;;9.30;71.07
77233;BME280;66251;51.144;17.050;2022-12-31T03:17:39;100087.53;;;9.35;70.91
77233;BME280;66251;51.144;17.050;2022-12-31T03:20:19;100103.89;;;9.40;70.97
77233;BME280;66251;51.144;17.050;2022-12-31T03:22:45;100110.91;;;9.41;70.72
77233;BME280;66251;51.144;17.050;2022-12-31T03:25:16;100101.04;;;9.40;70.76
77233;BME280;66251;51.144;17.050;2022-12-31T03:27:44;100107.27;;;9.41;70.82
77233;BME280;66251;51.144;17.050;2022-12-31T03:30:07;100109.45;;;9.44;70.68
77233;BME280;66251;51.144;17.050;2022-12-31T03:32:29;100114.83;;;9.46;70.63
77233;BME280;66251;51.144;17.050;2022-12-31T03:34:50;100118.48;;;9.49;70.56
77233;BME280;66251;51.144;17.050;2022-12-31T03:37:11;100118.09;;;9.51;70.38
77233;BME280;66251;51.144;17.050;2022-12-31T03:39:40;100126.77;;;9.53;70.28
77233;BME280;66251;51.144;17.050;2022-12-31T03:42:05;100135.82;;;9.55;70.58
77233;BME280;66251;51.144;17.050;2022-12-31T03:44:26;100136.11;;;9.56;70.37
77233;BME280;66251;51.144;17.050;2022-12-31T03:46:55;100149.23;;;9.59;70.25
77233;BME280;66251;51.144;17.050;2022-12-31T03:49:16;100147.87;;;9.61;70.10
77233;BME280;66251;51.144;17.050;2022-12-31T03:51:45;100141.79;;;9.62;70.01
77233;BME280;66251;51.144;17.050;2022-12-31T03:54:06;100140.16;;;9.64;70.12
77233;BME280;66251;51.144;17.050;2022-12-31T03:56:31;100135.17;;;9.64;69.96
77233;BME280;66251;51.144;17.050;2022-12-31T03:58:52;100138.66;;;9.67;69.97
77233;BME280;66251;51.144;17.050;2022-12-31T04:01:13;100136.65;;;9.68;69.85
77233;BME280;66251;51.144;17.050;2022-12-31T04:03:35;100133.66;;;9.70;69.99
77233;BME280;66251;51.144;17.050;2022-12-31T04:06:04;100115.39;;;9.71;69.77
77233;BME280;66251;51.144;17.050;2022-12-31T04:08:25;100115.27;;;9.72;69.82
77233;BME280;66251;51.144;17.050;2022-12-31T04:10:47;100121.08;;;9.72;70.06
77233;BME280;66251;51.144;17.050;2022-12-31T04:13:08;100122.85;;;9.72;70.05
77233;BME280;66251;51.144;17.050;2022-12-31T04:15:32;100115.39;;;9.71;70.12
77233;BME280;66251;51.144;17.050;2022-12-31T04:17:54;100111.20;;;9.69;70.08
77233;BME280;66251;51.144;17.050;2022-12-31T04:20:18;100117.15;;;9.71;70.20
77233;BME280;66251;51.144;17.050;2022-12-31T04:22:40;100113.51;;;9.74;70.31
77233;BME280;66251;51.144;17.050;2022-12-31T04:25:06;100109.59;;;9.78;70.12
77233;BME280;66251;51.144;17.050;2022-12-31T04:27:31;100101.44;;;9.83;70.33
77233;BME280;66251;51.144;17.050;2022-12-31T04:29:52;100096.16;;;9.88;70.20
77233;BME280;66251;51.144;17.050;2022-12-31T04:32:14;100087.27;;;9.87;70.28
77233;BME280;66251;51.144;17.050;2022-12-31T04:34:38;100084.02;;;9.83;70.44
77233;BME280;66251;51.144;17.050;2022-12-31T04:37:00;100095.09;;;9.81;70.58
77233;BME280;66251;51.144;17.050;2022-12-31T04:39:27;100092.41;;;9.79;70.68
77233;BME280;66251;51.144;17.050;2022-12-31T04:41:49;100107.15;;;9.82;70.81
77233;BME280;66251;51.144;17.050;2022-12-31T04:44:11;100119.71;;;9.90;70.58
77233;BME280;66251;51.144;17.050;2022-12-31T04:46:33;100119.57;;;9.95;70.64
77233;BME280;66251;51.144;17.050;2022-12-31T04:48:55;100122.29;;;10.01;70.50
77233;BME280;66251;51.144;17.050;2022-12-31T04:51:16;100116.87;;;10.01;70.49
77233;BME280;66251;51.144;17.050;2022-12-31T04:53:38;100121.47;;;10.03;70.42
77233;BME280;66251;51.144;17.050;2022-12-31T04:56:00;100122.84;;;10.08;70.42
77233;BME280;66251;51.144;17.050;2022-12-31T04:58:21;100112.95;;;10.05;70.50
77233;BME280;66251;51.144;17.050;2022-12-31T05:00:45;100117.81;;;9.98;70.96
77233;BME280;66251;51.144;17.050;2022-12-31T05:03:09;100118.09;;;9.96;71.35
77233;BME280;66251;51.144;17.050;2022-12-31T05:05:31;100123.09;;;9.93;71.50
77233;BME280;66251;51.144;17.050;2022-12-31T05:07:53;100103.77;;;9.93;71.38
77233;BME280;66251;51.144;17.050;2022-12-31T05:10:14;100104.95;;;9.91;71.42
77233;BME280;66251;51.144;17.050;2022-12-31T05:12:46;100107.01;;;9.93;71.62
77233;BME280;66251;51.144;17.050;2022-12-31T05:15:08;100097.95;;;9.93;71.70
77233;BME280;66251;51.144;17.050;2022-12-31T05:17:30;100102.95;;;9.95;71.61
77233;BME280;66251;51.144;17.050;2022-12-31T05:19:51;100102.79;;;9.93;71.88
77233;BME280;66251;51.144;17.050;2022-12-31T05:22:27;100097.39;;;9.91;71.60
77233;BME280;66251;51.144;17.050;2022-12-31T05:24:51;100101.34;;;9.87;71.77
77233;BME280;66251;51.144;17.050;2022-12-31T05:27:13;100103.22;;;9.86;71.85
77233;BME280;66251;51.144;17.050;2022-12-31T05:29:34;100100.91;;;9.86;71.87
77233;BME280;66251;51.144;17.050;2022-12-31T05:32:06;100109.86;;;9.87;71.99
77233;BME280;66251;51.144;17.050;2022-12-31T05:34:28;100116.47;;;9.88;72.16
77233;BME280;66251;51.144;17.050;2022-12-31T05:36:49;100113.64;;;9.88;71.97
77233;BME280;66251;51.144;17.050;2022-12-31T05:39:11;100117.95;;;9.89;72.29
77233;BME280;66251;51.144;17.050;2022-12-31T05:41:32;100118.77;;;9.87;72.22
77233;BME280;66251;51.144;17.050;2022-12-31T05:44:04;100121.22;;;9.86;72.48
77233;BME280;66251;51.144;17.050;2022-12-31T05:46:26;100111.34;;;9.86;72.44
77233;BME280;66251;51.144;17.050;2022-12-31T05:48:49;100105.92;;;9.86;72.83
77233;BME280;66251;51.144;17.050;2022-12-31T05:51:11;100107.27;;;9.86;73.09
77233;BME280;66251;51.144;17.050;2022-12-31T05:53:34;100108.08;;;9.84;72.97
77233;BME280;66251;51.144;17.050;2022-12-31T05:55:56;100118.26;;;9.83;73.25
77233;BME280;66251;51.144;17.050;2022-12-31T05:58:27;100126.91;;;9.85;73.70
77233;BME280;66251;51.144;17.050;2022-12-31T06:00:50;100131.10;;;9.87;73.30
77233;BME280;66251;51.144;17.050;2022-12-31T06:03:12;100118.64;;;9.88;73.18
77233;BME280;66251;51.144;17.050;2022-12-31T06:05:41;100116.07;;;9.90;73.48
77233;BME280;66251;51.144;17.050;2022-12-31T06:08:03;100114.18;;;9.90;73.30
77233;BME280;66251;51.144;17.050;2022-12-31T06:10:25;100108.90;;;9.92;73.50
77233;BME280;66251;51.144;17.050;2022-12-31T06:12:49;100110.66;;;9.95;73.45
77233;BME280;66251;51.144;17.050;2022-12-31T06:15:11;100113.09;;;9.99;73.48
77233;BME280;66251;51.144;17.050;2022-12-31T06:17:32;100111.05;;;10.00;73.54
77233;BME280;66251;51.144;17.050;2022-12-31T06:19:54;100110.64;;;10.03;73.89
77233;BME280;66251;51.144;17.050;2022-12-31T06:22:16;100114.16;;;10.03;74.32
77233;BME280;66251;51.144;17.050;2022-12-31T06:24:37;100117.01;;;10.05;74.73
77233;BME280;66251;51.144;17.050;2022-12-31T06:26:58;100124.98;;;10.08;74.44
77233;BME280;66251;51.144;17.050;2022-12-31T06:29:28;100126.24;;;10.11;74.92
77233;BME280;66251;51.144;17.050;2022-12-31T06:31:49;100131.51;;;10.15;74.76
77233;BME280;66251;51.144;17.050;2022-12-31T06:34:11;100135.45;;;10.18;75.14
77233;BME280;66251;51.144;17.050;2022-12-31T06:36:33;100138.80;;;10.19;74.79
77233;BME280;66251;51.144;17.050;2022-12-31T06:38:54;100136.39;;;10.18;74.91
77233;BME280;66251;51.144;17.050;2022-12-31T06:41:36;100138.69;;;10.15;75.12
77233;BME280;66251;51.144;17.050;2022-12-31T06:43:57;100132.33;;;10.13;75.20
77233;BME280;66251;51.144;17.050;2022-12-31T06:46:18;100124.32;;;10.12;75.18
77233;BME280;66251;51.144;17.050;2022-12-31T06:48:42;100130.68;;;10.14;75.47
77233;BME280;66251;51.144;17.050;2022-12-31T06:51:07;100125.81;;;10.21;75.38
77233;BME280;66251;51.144;17.050;2022-12-31T06:53:29;100115.50;;;10.23;75.42
77233;BME280;66251;51.144;17.050;2022-12-31T06:56:11;100114.57;;;10.23;75.23
77233;BME280;66251;51.144;17.050;2022-12-31T06:58:34;100114.04;;;10.24;75.47
77233;BME280;66251;51.144;17.050;2022-12-31T07:03:42;100130.14;;;10.30;75.59
77233;BME280;66251;51.144;17.050;2022-12-31T07:06:16;100141.09;;;10.31;75.65
77233;BME280;66251;51.144;17.050;2022-12-31T07:09:04;100137.85;;;10.32;75.62
77233;BME280;66251;51.144;17.050;2022-12-31T07:11:41;100153.83;;;10.36;75.67
77233;BME280;66251;51.144;17.050;2022-12-31T07:19:57;100156.32;;;10.57;75.15
77233;BME280;66251;51.144;17.050;2022-12-31T07:22:17;100146.02;;;10.64;75.00
77233;BME280;66251;51.144;17.050;2022-12-31T07:24:40;100152.22;;;10.69;75.03
77233;BME280;66251;51.144;17.050;2022-12-31T07:32:35;100151.84;;;10.94;74.77
77233;BME280;66251;51.144;17.050;2022-12-31T07:48:26;100160.97;;;11.40;73.94
77233;BME280;66251;51.144;17.050;2022-12-31T07:50:48;100160.12;;;11.47;73.70
77233;BME280;66251;51.144;17.050;2022-12-31T07:53:09;100165.78;;;11.53;73.59
77233;BME280;66251;51.144;17.050;2022-12-31T07:55:30;100156.65;;;11.58;73.44
77233;BME280;66251;51.144;17.050;2022-12-31T07:58:02;100156.46;;;11.64;73.31
77233;BME280;66251;51.144;17.050;2022-12-31T08:00:28;100164.45;;;11.70;73.20
77233;BME280;66251;51.144;17.050;2022-12-31T08:05:53;100179.05;;;11.81;72.85
77233;BME280;66251;51.144;17.050;2022-12-31T08:13:28;100180.15;;;11.97;72.35
77233;BME280;66251;51.144;17.050;2022-12-31T08:15:51;100176.41;;;12.02;72.15
77233;BME280;66251;51.144;17.050;2022-12-31T08:18:18;100178.98;;;12.08;71.98
77233;BME280;66251;51.144;17.050;2022-12-31T08:23:41;100174.70;;;12.14;71.71
77233;BME280;66251;51.144;17.050;2022-12-31T08:26:19;100171.58;;;12.14;71.67
77233;BME280;66251;51.144;17.050;2022-12-31T08:29:13;100181.46;;;12.16;71.62
77233;BME280;66251;51.144;17.050;2022-12-31T08:34:40;100180.91;;;12.17;71.51
77233;BME280;66251;51.144;17.050;2022-12-31T08:37:12;100181.55;;;12.21;71.39
77233;BME280;66251;51.144;17.050;2022-12-31T08:42:35;100190.29;;;12.32;71.00
77233;BME280;66251;51.144;17.050;2022-12-31T08:48:02;100184.34;;;12.42;70.80
77233;BME280;66251;51.144;17.050;2022-12-31T08:50:29;100173.43;;;12.47;70.70
77233;BME280;66251;51.144;17.050;2022-12-31T08:52:57;100176.09;;;12.52;70.61
77233;BME280;66251;51.144;17.050;2022-12-31T08:55:20;100174.96;;;12.55;70.52
77233;BME280;66251;51.144;17.050;2022-12-31T09:00:18;100178.16;;;12.62;70.33
77233;BME280;66251;51.144;17.050;2022-12-31T09:05:21;100163.65;;;12.69;70.20
77233;BME280;66251;51.144;17.050;2022-12-31T09:10:31;100165.19;;;12.78;70.18
77233;BME280;66251;51.144;17.050;2022-12-31T09:18:17;100161.67;;;12.89;69.99
77233;BME280;66251;51.144;17.050;2022-12-31T09:20:52;100162.70;;;12.93;69.97
77233;BME280;66251;51.144;17.050;2022-12-31T09:23:14;100171.30;;;13.00;69.98
77233;BME280;66251;51.144;17.050;2022-12-31T09:25:47;100171.91;;;13.09;69.74
77233;BME280;66251;51.144;17.050;2022-12-31T09:28:33;100164.44;;;13.20;69.69
77233;BME280;66251;51.144;17.050;2022-12-31T09:33:53;100171.95;;;13.46;69.34
77233;BME280;66251;51.144;17.050;2022-12-31T09:39:40;100177.55;;;13.74;68.77
77233;BME280;66251;51.144;17.050;2022-12-31T09:48:03;100161.52;;;13.95;68.30
77233;BME280;66251;51.144;17.050;2022-12-31T09:53:35;100162.87;;;14.04;67.87
77233;BME280;66251;51.144;17.050;2022-12-31T10:09:41;100169.94;;;14.37;67.08
77233;BME280;66251;51.144;17.050;2022-12-31T10:12:30;100169.85;;;14.42;66.92
77233;BME280;66251;51.144;17.050;2022-12-31T10:20:36;100159.48;;;14.65;66.52
77233;BME280;66251;51.144;17.050;2022-12-31T10:23:44;100170.60;;;14.75;66.38
77233;BME280;66251;51.144;17.050;2022-12-31T10:31:36;100157.38;;;15.07;65.65
77233;BME280;66251;51.144;17.050;2022-12-31T10:34:15;100156.57;;;15.13;65.30
77233;BME280;66251;51.144;17.050;2022-12-31T10:42:30;100135.45;;;15.30;64.83
77233;BME280;66251;51.144;17.050;2022-12-31T10:48:02;100143.49;;;15.44;64.29
77233;BME280;66251;51.144;17.050;2022-12-31T11:12:01;100134.05;;;15.79;63.34
77233;BME280;66251;51.144;17.050;2022-12-31T11:14:37;100126.99;;;15.82;63.15
77233;BME280;66251;51.144;17.050;2022-12-31T11:25:26;100118.54;;;16.03;62.70
77233;BME280;66251;51.144;17.050;2022-12-31T11:40:59;100111.98;;;16.24;61.92
77233;BME280;66251;51.144;17.050;2022-12-31T11:43:31;100101.56;;;16.30;61.79
77233;BME280;66251;51.144;17.050;2022-12-31T11:46:22;100131.91;;;16.36;61.63
77233;BME280;66251;51.144;17.050;2022-12-31T11:59:30;100098.50;;;16.82;60.36
77233;BME280;66251;51.144;17.050;2022-12-31T12:04:23;100104.47;;;16.97;60.19
77233;BME280;66251;51.144;17.050;2022-12-31T12:06:45;100106.73;;;17.04;60.01
77233;BME280;66251;51.144;17.050;2022-12-31T12:09:21;100093.20;;;17.07;59.39
77233;BME280;66251;51.144;17.050;2022-12-31T12:11:57;100105.06;;;17.14;59.03
77233;BME280;66251;51.144;17.050;2022-12-31T12:14:21;100101.86;;;17.20;58.99
77233;BME280;66251;51.144;17.050;2022-12-31T12:16:53;100099.52;;;17.20;58.88
77233;BME280;66251;51.144;17.050;2022-12-31T12:19:18;100104.05;;;17.25;58.55
77233;BME280;66251;51.144;17.050;2022-12-31T12:21:45;100100.43;;;17.31;58.61
77233;BME280;66251;51.144;17.050;2022-12-31T12:26:41;100146.13;;;17.50;58.09
77233;BME280;66251;51.144;17.050;2022-12-31T12:29:22;100120.66;;;17.54;57.88
77233;BME280;66251;51.144;17.050;2022-12-31T12:34:29;100133.89;;;17.56;57.72
77233;BME280;66251;51.144;17.050;2022-12-31T12:37:32;100135.45;;;17.60;57.66
77233;BME280;66251;51.144;17.050;2022-12-31T12:40:02;100122.20;;;17.66;57.67
77233;BME280;66251;51.144;17.050;2022-12-31T12:42:32;100119.63;;;17.74;57.41
77233;BME280;66251;51.144;17.050;2022-12-31T12:45:02;100143.09;;;17.73;57.07
77233;BME280;66251;51.144;17.050;2022-12-31T12:47:25;100136.09;;;17.70;57.19
77233;BME280;66251;51.144;17.050;2022-12-31T12:49:48;100138.83;;;17.74;57.12
77233;BME280;66251;51.144;17.050;2022-12-31T13:05:30;100117.22;;;17.55;57.49
77233;BME280;66251;51.144;17.050;2022-12-31T13:08:11;100123.12;;;17.56;57.56
77233;BME280;66251;51.144;17.050;2022-12-31T13:21:59;100152.77;;;17.84;57.01
77233;BME280;66251;51.144;17.050;2022-12-31T13:24:57;100142.12;;;17.65;57.42
77233;BME280;66251;51.144;17.050;2022-12-31T13:27:43;100130.82;;;17.66;57.24
77233;BME280;66251;51.144;17.050;2022-12-31T13:30:48;100139.55;;;17.60;57.49
77233;BME280;66251;51.144;17.050;2022-12-31T13:35:49;100161.48;;;17.32;58.39
77233;BME280;66251;51.144;17.050;2022-12-31T13:48:41;100163.74;;;17.34;58.70
77233;BME280;66251;51.144;17.050;2022-12-31T13:51:21;100157.70;;;17.35;58.65
77233;BME280;66251;51.144;17.050;2022-12-31T13:53:55;100164.48;;;17.37;58.55
77233;BME280;66251;51.144;17.050;2022-12-31T13:56:25;100166.89;;;17.34;58.56
77233;BME280;66251;51.144;17.050;2022-12-31T13:59:05;100174.79;;;17.27;58.89
77233;BME280;66251;51.144;17.050;2022-12-31T14:01:45;100159.14;;;17.28;58.82
77233;BME280;66251;51.144;17.050;2022-12-31T14:04:16;100154.79;;;17.27;58.89
77233;BME280;66251;51.144;17.050;2022-12-31T14:09:19;100159.90;;;17.11;59.40
77233;BME280;66251;51.144;17.050;2022-12-31T14:23:05;100182.60;;;16.79;60.80
77233;BME280;66251;51.144;17.050;2022-12-31T14:28:20;100181.12;;;16.73;60.83
77233;BME280;66251;51.144;17.050;2022-12-31T14:30:51;100172.11;;;16.73;60.94
77233;BME280;66251;51.144;17.050;2022-12-31T14:36:11;100169.44;;;16.66;61.55
77233;BME280;66251;51.144;17.050;2022-12-31T14:38:42;100180.68;;;16.64;61.37
77233;BME280;66251;51.144;17.050;2022-12-31T14:51:28;100188.67;;;16.41;62.23
77233;BME280;66251;51.144;17.050;2022-12-31T14:53:52;100184.22;;;16.38;62.28
77233;BME280;66251;51.144;17.050;2022-12-31T14:58:55;100170.27;;;16.29;62.59
77233;BME280;66251;51.144;17.050;2022-12-31T15:01:21;100179.59;;;16.17;63.57
77233;BME280;66251;51.144;17.050;2022-12-31T15:03:45;100182.83;;;16.19;63.01
77233;BME280;66251;51.144;17.050;2022-12-31T15:09:04;100180.94;;;16.13;63.37
77233;BME280;66251;51.144;17.050;2022-12-31T15:14:07;100205.56;;;16.06;64.05
77233;BME280;66251;51.144;17.050;2022-12-31T15:16:47;100174.26;;;16.05;63.79
77233;BME280;66251;51.144;17.050;2022-12-31T15:24:29;100177.95;;;16.00;63.98
77233;BME280;66251;51.144;17.050;2022-12-31T15:26:57;100171.59;;;15.98;64.25
77233;BME280;66251;51.144;17.050;2022-12-31T15:29:25;100183.89;;;15.98;64.00
77233;BME280;66251;51.144;17.050;2022-12-31T15:31:48;100185.95;;;15.97;64.08
77233;BME280;66251;51.144;17.050;2022-12-31T15:36:53;100199.44;;;15.93;64.24
77233;BME280;66251;51.144;17.050;2022-12-31T15:41:52;100202.70;;;15.89;64.74
77233;BME280;66251;51.144;17.050;2022-12-31T15:44:30;100196.66;;;15.89;64.35
77233;BME280;66251;51.144;17.050;2022-12-31T15:47:03;100208.73;;;15.88;64.48
77233;BME280;66251;51.144;17.050;2022-12-31T15:49:39;100209.02;;;15.87;64.72
77233;BME280;66251;51.144;17.050;2022-12-31T15:52:10;100212.25;;;15.89;64.42
77233;BME280;66251;51.144;17.050;2022-12-31T15:54:44;100222.95;;;15.88;64.54
77233;BME280;66251;51.144;17.050;2022-12-31T15:57:29;100229.52;;;15.87;64.56
77233;BME280;66251;51.144;17.050;2022-12-31T15:59:58;100222.39;;;15.88;64.43
77233;BME280;66251;51.144;17.050;2022-12-31T16:02:23;100233.48;;;15.87;64.57
77233;BME280;66251;51.144;17.050;2022-12-31T16:07:41;100236.71;;;15.89;64.60
77233;BME280;66251;51.144;17.050;2022-12-31T16:10:06;100237.66;;;15.89;64.81
77233;BME280;66251;51.144;17.050;2022-12-31T16:12:30;100240.80;;;15.89;64.76
77233;BME280;66251;51.144;17.050;2022-12-31T16:14:56;100238.48;;;15.90;64.85
77233;BME280;66251;51.144;17.050;2022-12-31T16:17:34;100246.82;;;15.89;64.78
77233;BME280;66251;51.144;17.050;2022-12-31T16:20:01;100245.87;;;15.89;64.69
77233;BME280;66251;51.144;17.050;2022-12-31T16:22:55;100256.71;;;15.87;64.80
77233;BME280;66251;51.144;17.050;2022-12-31T16:25:25;100256.24;;;15.90;64.81
77233;BME280;66251;51.144;17.050;2022-12-31T16:27:48;100255.52;;;15.91;64.71
77233;BME280;66251;51.144;17.050;2022-12-31T16:30:20;100250.52;;;15.89;64.75
77233;BME280;66251;51.144;17.050;2022-12-31T16:33:01;100259.44;;;15.87;64.78
77233;BME280;66251;51.144;17.050;2022-12-31T16:35:33;100268.04;;;15.88;64.68
77233;BME280;66251;51.144;17.050;2022-12-31T16:38:16;100275.57;;;15.86;64.78
77233;BME280;66251;51.144;17.050;2022-12-31T16:43:36;100267.45;;;15.84;64.75
77233;BME280;66251;51.144;17.050;2022-12-31T16:46:09;100275.70;;;15.81;65.12
77233;BME280;66251;51.144;17.050;2022-12-31T16:48:31;100277.48;;;15.82;64.87
77233;BME280;66251;51.144;17.050;2022-12-31T16:50:56;100277.72;;;15.83;64.85
77233;BME280;66251;51.144;17.050;2022-12-31T16:53:27;100283.09;;;15.81;64.96
77233;BME280;66251;51.144;17.050;2022-12-31T16:56:14;100281.08;;;15.80;64.87
77233;BME280;66251;51.144;17.050;2022-12-31T16:58:44;100275.74;;;15.79;64.88
77233;BME280;66251;51.144;17.050;2022-12-31T17:03:41;100280.81;;;15.79;65.01
77233;BME280;66251;51.144;17.050;2022-12-31T17:06:17;100276.71;;;15.79;65.11
77233;BME280;66251;51.144;17.050;2022-12-31T17:09:03;100279.72;;;15.80;64.97
77233;BME280;66251;51.144;17.050;2022-12-31T17:14:29;100282.68;;;15.81;65.04
77233;BME280;66251;51.144;17.050;2022-12-31T17:16:59;100286.38;;;15.80;65.13
77233;BME280;66251;51.144;17.050;2022-12-31T17:19:32;100289.78;;;15.82;65.04
77233;BME280;66251;51.144;17.050;2022-12-31T17:21:57;100292.92;;;15.82;64.92
77233;BME280;66251;51.144;17.050;2022-12-31T17:24:20;100294.06;;;15.78;65.38
77233;BME280;66251;51.144;17.050;2022-12-31T17:26:44;100289.38;;;15.81;65.00
77233;BME280;66251;51.144;17.050;2022-12-31T17:29:14;100293.92;;;15.79;65.00
77233;BME280;66251;51.144;17.050;2022-12-31T17:34:21;100296.11;;;15.80;65.14
77233;BME280;66251;51.144;17.050;2022-12-31T17:37:18;100290.38;;;15.79;65.13
77233;BME280;66251;51.144;17.050;2022-12-31T17:39:43;100294.06;;;15.78;65.15